Placido de Castro Airport Rio Branco BR
ICAO: SBRB
IATA: RBR
Category: Medium
Scheduled Services: Yes

Elevation: 633 ft
TransAlt. 3000 ft.

Airport Communications:
RIO BRANCO APP:119.9
RIO BRANCO TWR:118.7

SBRB Zoom In..

If you have problems with the map follow the link
https://www.worldairports.se/pages/airport.php?
ICAO=SBRB

Runways:

(A) RW 06 length 7080 ft width 148 ft
ILS 109.30 / hdg 65

(B) RW 24 length 7080 ft width 148 ft
---- / hdg 245

Location; SBRB
Day. 25 / Time. 22.00 Zulu
* QNH: 1008
* Temperature: 28° c. 82.4°f.
* Wind from: 210° Speed 02 kn.
Dewpoint: 24° c.
Visibility: 10 km or more.
Clouds: Few 2000 ft.

SBRB 252200Z 21002KT 9999 FEW020 28/24 Q1008


Wind From 210°
Speed 02 kn.

 
 
jpsmedia worldairports.se 2020   terms of use